Погода Тепехи-де-Окампона 2 недели

Идальго, Мексика

12 - 25 июня
  • 12июня
    Сегодня
    +12°
    +28°
    Практически безоблачно
    ВремяПогодаТемператураВлажностьДавлениеВетер, м/сВероятность осадков
    00:00Ясно и безоблачно+16°C87 %597 мм1.8 м/с2 %
    03:00Ясно и безоблачно+15°C95 %596 мм1.0 м/с2 %
    06:00Облачно с прояснениями+13°C99 %596 мм0.9 м/с2 %
    09:00Облачно с прояснениями+18°C57 %598 мм1.5 м/с2 %
    12:00Облачно с прояснениями+25°C29 %599 мм4.7 м/с2 %
    15:00Практически безоблачно+27°C24 %599 мм6.5 м/с2 %
    18:00Ясно и безоблачно+24°C31 %597 мм6.9 м/с2 %
    21:00Ясно и безоблачно+18°C61 %598 мм4.1 м/с2 %
  • 13июня
    Четверг
    +12°
    +27°
    Небольшая облачность
    ВремяПогодаТемператураВлажностьДавлениеВетер, м/сВероятность осадков
    00:00Небольшая облачность+16°C81 %598 мм1.5 м/с2 %
    03:00Облачно с прояснениями+14°C92 %596 мм0.8 м/с2 %
    06:00Облачно с прояснениями+12°C92 %595 мм0.9 м/с2 %
    09:00Ясно и безоблачно+18°C47 %598 мм0.9 м/с2 %
    12:00Небольшая облачность+25°C27 %599 мм3.5 м/с2 %
    15:00Небольшая облачность+27°C22 %598 мм5.8 м/с2 %
    18:00Небольшая облачность+25°C31 %597 мм7.1 м/с2 %
    21:00Ясно и безоблачно+19°C63 %598 мм4.1 м/с3 %
  • 14июня
    Пятница
    +13°
    +28°
    Облачно с прояснениями
    ВремяПогодаТемператураВлажностьДавлениеВетер, м/сВероятность осадков
    00:00Небольшая облачность+16°C81 %598 мм1.6 м/с3 %
    03:00Небольшая облачность+14°C92 %596 мм1.0 м/с3 %
    06:00Небольшая облачность+13°C95 %595 мм1.0 м/с2 %
    09:00Практически безоблачно+18°C53 %598 мм0.7 м/с2 %
    12:00Практически безоблачно+25°C27 %599 мм3.8 м/с3 %
    15:00Облачно с прояснениями+27°C20 %597 мм5.8 м/с5 %
    18:00Ясно и безоблачно+23°C36 %596 мм7.1 м/с6 %
    21:00Ясно и безоблачно+19°C69 %597 мм3.5 м/с5 %
  • 15июня
    Суббота
    +13°
    +27°
    Облачно с прояснениями
    ВремяПогодаТемператураВлажностьДавлениеВетер, м/сВероятность осадков
    00:00Практически безоблачно+16°C88 %597 мм2.7 м/с14 %
    03:00Облачно с прояснениями+15°C90 %596 мм2.1 м/с14 %
    06:00Практически безоблачно+14°C88 %595 мм1.1 м/с6 %
    09:00Ясно и безоблачно+18°C56 %597 мм1.5 м/с2 %
    12:00Небольшая облачность+24°C32 %598 мм3.3 м/с2 %
    15:00Облачно с прояснениями+27°C26 %597 мм5.1 м/с9 %
    18:00Ясно и безоблачно+22°C43 %595 мм7.4 м/с18 %
    21:00Ясно и безоблачно+18°C73 %596 мм4.2 м/с12 %
  • 16июня
    Воскресенье
    +14°
    +27°
    Небольшая облачность
    ВремяПогодаТемператураВлажностьДавлениеВетер, м/сВероятность осадков
    00:00Ясно и безоблачно+15°C87 %596 мм1.8 м/с17 %
    03:00Небольшая облачность+15°C92 %595 мм0.9 м/с13 %
    06:00Облачно с прояснениями+14°C96 %594 мм0.8 м/с7 %
    09:00Ясно и безоблачно+18°C59 %596 мм0.6 м/с7 %
    12:00Практически безоблачно+25°C32 %597 мм3.6 м/с15 %
    15:00Небольшая облачность+26°C25 %595 мм5.6 м/с19 %
    18:00Практически безоблачно+23°C40 %595 мм7.1 м/с40 %
    21:00Ясно и безоблачно+18°C75 %595 мм4.4 м/с27 %
Мы используем cookies
Соглашаюсь